Time;durP1;ratioP1;P1;durP2;ratioP2;P2;SDS_P1;SDS_P2;PMS_P1;PMS_P2;Temp;Humidity;BMP_temperature;BMP_pressure;BME280_temperature;BME280_humidity;BME280_pressure;Samples;Min_cycle;Max_cycle;Signal;HPM_P1;HPM_P2
2020/12/20 00:01:44;;;;;;;82.63;46.60;;;180.10;1920.00;;;;;;5076267;28;20017;-68
2020/12/20 00:04:14;;;;;;;89.05;47.45;;;180.10;1894.40;;;;;;5076466;28;20048;-68
2020/12/20 00:06:42;;;;;;;84.95;46.92;;;180.10;1894.40;;;;;;5075542;28;20016;-68
2020/12/20 00:09:19;;;;;;;88.85;47.78;;;180.10;1920.00;;;;;;5076066;28;20475;-68
2020/12/20 00:11:48;;;;;;;79.97;45.53;;;180.10;1894.40;;;;;;5076058;28;20064;-68
2020/12/20 00:14:34;;;;;;;85.88;44.97;;;180.10;1894.40;;;;;;5075904;28;20039;-68
2020/12/20 00:17:11;;;;;;;80.25;44.38;;;180.10;1894.40;;;;;;5075682;28;20075;-68
2020/12/20 00:19:37;;;;;;;80.18;45.78;;;180.10;1894.40;;;;;;5076253;28;20037;-68
2020/12/20 00:22:05;;;;;;;76.85;45.05;;;180.10;1894.40;;;;;;5074249;28;20120;-68
2020/12/20 00:24:30;;;;;;;81.68;43.53;;;180.10;1920.00;;;;;;5075757;28;20024;-68
2020/12/20 00:26:57;;;;;;;76.13;44.50;;;180.10;1894.40;;;;;;5076295;28;20099;-68
2020/12/20 00:29:24;;;;;;;82.55;44.00;;;180.10;1894.40;;;;;;5075888;28;20024;-68
2020/12/20 00:31:50;;;;;;;76.80;43.20;;;180.10;1920.00;;;;;;5075068;28;20078;-68
2020/12/20 00:34:16;;;;;;;75.90;43.15;;;180.10;1894.40;;;;;;5075781;28;20047;-68
2020/12/20 00:36:47;;;;;;;70.47;41.67;;;180.10;1894.40;;;;;;5075630;28;20025;-68
2020/12/20 00:39:14;;;;;;;72.18;42.65;;;180.10;1894.40;;;;;;5075511;28;20036;-68
2020/12/20 00:41:41;;;;;;;66.88;38.97;;;180.10;1894.40;;;;;;5075431;28;20078;-68
2020/12/20 00:44:07;;;;;;;71.68;40.15;;;180.10;1894.40;;;;;;5075514;28;20077;-68
2020/12/20 00:46:35;;;;;;;73.82;41.17;;;180.10;1894.40;;;;;;5075710;28;20028;-68
2020/12/20 00:49:03;;;;;;;70.57;41.67;;;180.10;1894.40;;;;;;5075336;28;20025;-68
2020/12/20 00:51:32;;;;;;;73.15;40.95;;;180.10;1894.40;;;;;;5075272;28;20060;-68
2020/12/20 00:53:59;;;;;;;77.22;40.55;;;180.10;1894.40;;;;;;5075125;28;20020;-68
2020/12/20 00:56:25;;;;;;;72.75;41.05;;;180.10;1894.40;;;;;;5075099;28;20020;-68
2020/12/20 00:58:50;;;;;;;71.80;39.75;;;180.10;1920.00;;;;;;5075070;28;20492;-68
2020/12/20 01:01:17;;;;;;;66.85;38.58;;;180.10;1894.40;;;;;;5075356;28;20494;-68
2020/12/20 01:03:42;;;;;;;65.28;37.40;;;180.10;1920.00;;;;;;5073858;28;20028;-68
2020/12/20 01:06:14;;;;;;;69.97;39.70;;;180.10;1920.00;;;;;;5074847;28;20025;-68
2020/12/20 01:08:40;;;;;;;71.43;39.03;;;180.10;1920.00;;;;;;5073433;28;20127;-68
2020/12/20 01:11:07;;;;;;;67.80;38.58;;;180.10;1894.40;;;;;;5074997;28;20033;-68
2020/12/20 01:13:33;;;;;;;70.68;40.15;;;180.10;1920.00;;;;;;5074431;28;20105;-68
2020/12/20 01:15:59;;;;;;;68.22;39.00;;;180.10;1894.40;;;;;;5074810;28;20071;-68
2020/12/20 01:18:24;;;;;;;66.47;39.80;;;180.00;1920.00;;;;;;5073612;28;20135;-68
2020/12/20 01:20:50;;;;;;;65.00;39.10;;;180.00;1920.00;;;;;;5074695;28;20025;-68
2020/12/20 01:23:16;;;;;;;62.40;38.08;;;180.00;1920.00;;;;;;5074537;28;20029;-68
2020/12/20 01:25:41;;;;;;;67.57;38.22;;;180.00;1920.00;;;;;;5073994;28;20052;-68
2020/12/20 01:28:07;;;;;;;66.38;38.75;;;180.10;1920.00;;;;;;5074562;28;20377;-68
2020/12/20 01:30:33;;;;;;;62.25;37.00;;;180.10;1920.00;;;;;;5074592;28;20478;-68
2020/12/20 01:32:58;;;;;;;60.95;36.88;;;180.10;1894.40;;;;;;5072610;28;20055;-68
2020/12/20 01:35:24;;;;;;;63.08;37.38;;;180.00;1920.00;;;;;;5074704;28;20209;-68
2020/12/20 01:37:50;;;;;;;64.18;38.80;;;180.00;1920.00;;;;;;5074083;28;20070;-68
2020/12/20 01:40:15;;;;;;;64.60;38.47;;;180.00;1894.40;;;;;;5073882;28;20086;-68
2020/12/20 01:42:41;;;;;;;62.88;36.15;;;180.00;1894.40;;;;;;5074383;28;20035;-68
2020/12/20 01:45:07;;;;;;;61.90;35.92;;;180.00;1920.00;;;;;;5073985;28;20051;-68
2020/12/20 01:47:33;;;;;;;60.85;35.25;;;180.00;1920.00;;;;;;5074012;28;20036;-68
2020/12/20 01:50:04;;;;;;;57.45;35.00;;;180.00;1920.00;;;;;;5074052;28;20029;-68
2020/12/20 01:52:32;;;;;;;57.67;34.08;;;180.00;1920.00;;;;;;5072720;28;20078;-68
2020/12/20 01:55:00;;;;;;;56.78;35.38;;;180.00;1920.00;;;;;;5074011;28;20033;-68
2020/12/20 01:57:26;;;;;;;74.35;37.72;;;180.00;1920.00;;;;;;5073937;28;20488;-68
2020/12/20 01:59:52;;;;;;;57.50;36.75;;;180.00;1920.00;;;;;;5074052;28;20033;-68
2020/12/20 02:02:20;;;;;;;60.13;35.17;;;179.90;1920.00;;;;;;5073619;28;20475;-67
2020/12/20 02:04:47;;;;;;;59.08;35.05;;;179.90;1920.00;;;;;;5073989;28;20024;-68
2020/12/20 02:07:12;;;;;;;62.38;36.88;;;179.90;1920.00;;;;;;5073960;28;20020;-68
2020/12/20 02:09:39;;;;;;;60.67;36.05;;;179.90;1920.00;;;;;;5073924;28;20378;-68
2020/12/20 02:12:06;;;;;;;58.33;34.72;;;179.90;1920.00;;;;;;5074089;28;20404;-68
2020/12/20 02:14:32;;;;;;;65.60;36.05;;;179.90;1920.00;;;;;;5073733;28;20466;-67
2020/12/20 02:16:59;;;;;;;61.40;36.05;;;179.90;1920.00;;;;;;5073460;28;20070;-68
2020/12/20 02:19:25;;;;;;;66.72;35.42;;;180.00;1920.00;;;;;;5073774;28;20549;-68
2020/12/20 02:21:51;;;;;;;62.38;35.63;;;180.00;1920.00;;;;;;5073891;28;20025;-68
2020/12/20 02:24:18;;;;;;;69.50;37.00;;;180.00;1920.00;;;;;;5073077;28;20028;-68
2020/12/20 02:26:44;;;;;;;61.10;35.53;;;180.00;1920.00;;;;;;5072346;28;20032;-68
2020/12/20 02:29:10;;;;;;;60.80;35.22;;;180.00;1920.00;;;;;;5073337;28;20021;-68
2020/12/20 02:31:36;;;;;;;62.53;36.85;;;180.00;1920.00;;;;;;5073671;28;20036;-68
2020/12/20 02:34:02;;;;;;;66.82;37.13;;;180.00;1920.00;;;;;;5073725;28;20021;-68
2020/12/20 02:36:29;;;;;;;66.43;36.25;;;180.10;1920.00;;;;;;5073610;28;20025;-68
2020/12/20 02:38:55;;;;;;;63.70;35.42;;;180.10;1920.00;;;;;;5072988;28;20064;-68
2020/12/20 02:41:20;;;;;;;61.15;34.38;;;180.00;1920.00;;;;;;5073562;28;20407;-68
2020/12/20 02:43:47;;;;;;;63.72;37.85;;;180.00;1920.00;;;;;;5073487;28;20028;-68
2020/12/20 02:46:13;;;;;;;62.42;36.13;;;180.10;1920.00;;;;;;5073325;28;20099;-68
2020/12/20 02:48:39;;;;;;;62.85;34.83;;;180.10;1920.00;;;;;;5073746;28;20125;-68
2020/12/20 02:51:05;;;;;;;61.38;34.63;;;180.10;1920.00;;;;;;5073475;28;20034;-68
2020/12/20 02:53:31;;;;;;;62.75;35.13;;;180.10;1920.00;;;;;;5073630;28;20028;-68
2020/12/20 02:55:57;;;;;;;61.00;34.58;;;180.10;1920.00;;;;;;5073371;28;20029;-69
2020/12/20 02:58:22;;;;;;;61.92;34.60;;;180.10;1920.00;;;;;;5073176;28;20040;-68
2020/12/20 03:00:48;;;;;;;61.42;34.50;;;180.10;1920.00;;;;;;5073461;28;20024;-68
2020/12/20 03:03:14;;;;;;;62.28;36.13;;;180.10;1920.00;;;;;;5073345;28;20462;-68
2020/12/20 03:05:40;;;;;;;64.78;34.97;;;180.10;1920.00;;;;;;5073067;28;20078;-68
2020/12/20 03:08:06;;;;;;;63.90;34.42;;;180.10;1920.00;;;;;;5073459;28;20024;-68
2020/12/20 03:10:32;;;;;;;65.13;35.08;;;180.10;1920.00;;;;;;5071611;28;20393;-68
2020/12/20 03:12:58;;;;;;;63.65;35.67;;;180.10;1920.00;;;;;;5073137;28;20024;-68
2020/12/20 03:15:24;;;;;;;64.97;34.65;;;180.10;1920.00;;;;;;5072590;28;20039;-68
2020/12/20 03:17:49;;;;;;;62.72;35.00;;;180.10;1920.00;;;;;;5072847;28;20037;-68
2020/12/20 03:20:15;;;;;;;59.92;36.15;;;180.10;1920.00;;;;;;5073361;28;20029;-68
2020/12/20 03:22:41;;;;;;;58.70;34.35;;;180.10;1920.00;;;;;;5073290;28;20024;-68
2020/12/20 03:25:06;;;;;;;61.60;34.10;;;180.10;1920.00;;;;;;5073004;28;20093;-68
2020/12/20 03:27:32;;;;;;;60.53;34.33;;;180.10;1920.00;;;;;;5073165;28;20024;-68
2020/12/20 03:29:58;;;;;;;62.90;35.65;;;180.10;1920.00;;;;;;5073369;28;20048;-68
2020/12/20 03:32:24;;;;;;;64.90;35.58;;;180.10;1920.00;;;;;;5072642;28;20024;-68
2020/12/20 03:34:50;;;;;;;62.63;36.63;;;180.00;1945.60;;;;;;5073151;28;20024;-68
2020/12/20 03:37:15;;;;;;;68.05;35.10;;;180.00;1920.00;;;;;;5073008;28;20047;-68
2020/12/20 03:39:41;;;;;;;62.13;34.97;;;180.00;1945.60;;;;;;5072314;28;20032;-68
2020/12/20 03:42:07;;;;;;;66.95;36.08;;;180.00;1945.60;;;;;;5074737;28;20430;-68
2020/12/20 03:44:33;;;;;;;72.07;38.75;;;180.10;1945.60;;;;;;5076758;28;20047;-68
2020/12/20 03:46:58;;;;;;;66.00;36.22;;;180.10;1945.60;;;;;;5075221;28;20033;-68
2020/12/20 03:49:24;;;;;;;66.65;36.20;;;180.10;1945.60;;;;;;5076553;28;20052;-68
2020/12/20 03:51:50;;;;;;;67.90;37.50;;;180.10;1945.60;;;;;;5076359;28;20035;-68
2020/12/20 03:54:16;;;;;;;68.93;38.50;;;180.00;1945.60;;;;;;5074974;28;20028;-68
2020/12/20 03:56:41;;;;;;;72.10;38.35;;;204.80;1945.60;;;;;;5075496;28;20465;-68
2020/12/20 03:59:07;;;;;;;67.35;38.40;;;180.10;1945.60;;;;;;5076123;28;20127;-68
2020/12/20 04:01:33;;;;;;;76.05;39.88;;;180.10;1945.60;;;;;;5076041;28;20028;-68
2020/12/20 04:03:58;;;;;;;71.28;39.40;;;180.10;1945.60;;;;;;5076311;28;20103;-68
2020/12/20 04:06:24;;;;;;;69.47;39.63;;;180.10;1945.60;;;;;;5076171;28;20031;-68
2020/12/20 04:08:50;;;;;;;75.03;40.30;;;180.10;1945.60;;;;;;5075268;28;20028;-68
2020/12/20 04:11:15;;;;;;;70.65;38.10;;;180.10;1945.60;;;;;;5075945;28;20033;-68
2020/12/20 04:13:41;;;;;;;79.55;40.33;;;180.10;1945.60;;;;;;5076200;28;20020;-68
2020/12/20 04:16:08;;;;;;;75.65;41.50;;;180.00;1945.60;;;;;;5076037;28;20465;-68
2020/12/20 04:18:35;;;;;;;75.05;41.88;;;180.00;1945.60;;;;;;5074489;28;20048;-68
2020/12/20 04:21:01;;;;;;;74.30;41.60;;;180.00;1945.60;;;;;;5075908;28;20020;-68
2020/12/20 04:23:27;;;;;;;78.38;40.15;;;180.10;1971.20;;;;;;5075861;28;20029;-68
2020/12/20 04:25:53;;;;;;;73.00;39.38;;;180.10;1945.60;;;;;;5075469;28;20025;-68
2020/12/20 04:28:19;;;;;;;76.40;42.38;;;180.10;1945.60;;;;;;5074392;28;20024;-68
2020/12/20 04:30:45;;;;;;;72.10;38.40;;;180.10;1945.60;;;;;;5075846;28;20070;-68
2020/12/20 04:33:11;;;;;;;73.45;39.97;;;180.00;1971.20;;;;;;5075624;28;20505;-68
2020/12/20 04:35:36;;;;;;;78.00;40.80;;;180.10;1945.60;;;;;;5075653;28;20469;-68
2020/12/20 04:38:03;;;;;;;75.63;40.47;;;180.10;1945.60;;;;;;5075390;28;20024;-68
2020/12/20 04:40:29;;;;;;;78.57;41.13;;;180.00;1945.60;;;;;;5075657;28;20028;-68
2020/12/20 04:43:06;;;;;;;77.78;41.85;;;180.00;1971.20;;;;;;5075532;28;20028;-68
2020/12/20 04:45:33;;;;;;;76.28;40.75;;;180.10;1945.60;;;;;;5075459;28;20032;-68
2020/12/20 04:47:59;;;;;;;78.38;40.25;;;180.10;1945.60;;;;;;5075302;28;20028;-68
2020/12/20 04:50:25;;;;;;;79.50;39.53;;;180.10;1945.60;;;;;;5075124;28;20028;-68
2020/12/20 04:52:56;;;;;;;77.25;40.53;;;180.10;1945.60;;;;;;5075103;28;20052;-68
2020/12/20 04:55:23;;;;;;;81.63;41.33;;;180.10;1971.20;;;;;;5075326;28;20536;-68
2020/12/20 04:57:50;;;;;;;78.72;42.03;;;180.00;1971.20;;;;;;5074721;28;20028;-68
2020/12/20 05:00:17;;;;;;;73.88;39.22;;;180.00;1971.20;;;;;;5075120;28;20032;-68
2020/12/20 05:02:43;;;;;;;78.32;41.75;;;180.10;1945.60;;;;;;5074564;28;20024;-68
2020/12/20 05:05:09;;;;;;;80.78;42.35;;;180.10;1945.60;;;;;;5073788;28;20020;-68
2020/12/20 05:07:35;;;;;;;84.43;45.88;;;180.10;1945.60;;;;;;5074850;28;20234;-68
2020/12/20 05:10:01;;;;;;;82.22;43.53;;;180.10;1971.20;;;;;;5074459;28;20028;-68
2020/12/20 05:12:29;;;;;;;81.05;44.00;;;180.10;1945.60;;;;;;5073499;28;20103;-68
2020/12/20 05:14:56;;;;;;;87.10;43.78;;;180.10;1971.20;;;;;;5074795;28;20031;-68
2020/12/20 05:17:21;;;;;;;81.05;43.35;;;180.10;1945.60;;;;;;5074546;28;20052;-68
2020/12/20 05:19:47;;;;;;;88.60;46.05;;;180.10;1971.20;;;;;;5074629;28;20054;-68
2020/12/20 05:22:18;;;;;;;89.88;44.88;;;180.10;1971.20;;;;;;5074730;28;20016;-68
2020/12/20 05:24:45;;;;;;;88.78;45.33;;;180.10;1971.20;;;;;;5074473;28;20052;-68
2020/12/20 05:27:24;;;;;;;79.88;44.47;;;180.10;1971.20;;;;;;5074674;28;20421;-68
2020/12/20 05:29:53;;;;;;;84.35;43.42;;;180.00;1971.20;;;;;;5074522;28;20025;-68
2020/12/20 05:32:30;;;;;;;85.35;45.35;;;180.10;1971.20;;;;;;5074398;28;20024;-68
2020/12/20 05:35:00;;;;;;;93.05;48.08;;;180.10;1971.20;;;;;;5074444;28;20522;-68
2020/12/20 05:37:34;;;;;;;89.85;48.28;;;180.00;1971.20;;;;;;5074397;28;20039;-68
2020/12/20 05:40:02;;;;;;;86.43;48.10;;;180.00;1971.20;;;;;;5073977;28;20033;-68
2020/12/20 05:42:29;;;;;;;87.75;46.05;;;180.00;1971.20;;;;;;5074486;28;20027;-68
2020/12/20 05:45:10;;;;;;;96.80;48.97;;;180.00;1971.20;;;;;;5073148;28;20478;-68
2020/12/20 05:47:39;;;;;;;99.05;51.25;;;180.10;1996.80;;;;;;5074029;28;20028;-68
2020/12/20 05:50:10;;;;;;;91.93;47.83;;;180.10;1971.20;;;;;;5074217;28;20051;-68
2020/12/20 05:52:36;;;;;;;91.35;47.88;;;180.10;1971.20;;;;;;5074181;28;20105;-68
2020/12/20 05:55:11;;;;;;;86.75;46.50;;;180.00;1971.20;;;;;;5074103;28;20473;-68
2020/12/20 05:57:37;;;;;;;89.75;46.22;;;180.10;1971.20;;;;;;5074070;28;20493;-68
2020/12/20 06:00:03;;;;;;;81.93;46.22;;;180.10;1971.20;;;;;;5074106;28;20052;-68
2020/12/20 06:02:29;;;;;;;97.22;50.28;;;180.10;1971.20;;;;;;5073843;28;20370;-68
2020/12/20 06:04:56;;;;;;;93.05;53.70;;;180.00;1971.20;;;;;;5073432;28;20032;-68
2020/12/20 06:07:26;;;;;;;106.95;57.05;;;180.10;1971.20;;;;;;5074051;28;20107;-68
2020/12/20 06:09:54;;;;;;;104.95;54.60;;;180.10;1971.20;;;;;;5074041;28;20108;-68
2020/12/20 06:12:30;;;;;;;105.43;54.95;;;180.00;1971.20;;;;;;5073808;28;20027;-68
2020/12/20 06:14:59;;;;;;;104.70;55.72;;;180.00;1996.80;;;;;;5073981;28;20021;-68
2020/12/20 06:17:28;;;;;;;104.72;53.45;;;180.00;1971.20;;;;;;5072975;28;20053;-68
2020/12/20 06:20:04;;;;;;;101.32;53.67;;;180.00;1996.80;;;;;;5074006;28;20032;-68
2020/12/20 06:22:30;;;;;;;94.82;49.45;;;180.00;1971.20;;;;;;5073892;28;20111;-68
2020/12/20 06:24:58;;;;;;;92.63;49.88;;;180.00;1971.20;;;;;;5073846;28;20077;-68
2020/12/20 06:27:29;;;;;;;95.40;50.83;;;180.00;1996.80;;;;;;5073471;28;20059;-68
2020/12/20 06:29:56;;;;;;;92.38;51.72;;;180.00;1996.80;;;;;;5073556;28;20031;-70
2020/12/20 06:32:49;;;;;;;102.78;53.13;;;180.00;1996.80;;;;;;5073653;28;20043;-68
2020/12/20 06:35:24;;;;;;;106.85;58.67;;;180.00;1996.80;;;;;;5073182;28;20036;-69
2020/12/20 06:37:50;;;;;;;107.80;59.42;;;180.10;1996.80;;;;;;5073102;28;20028;-68
2020/12/20 06:40:30;;;;;;;98.78;57.08;;;180.10;1996.80;;;;;;5073705;28;20177;-68
2020/12/20 06:43:00;;;;;;;102.57;54.85;;;180.10;1971.20;;;;;;5073521;28;20434;-68
2020/12/20 06:45:32;;;;;;;97.38;52.90;;;180.10;1996.80;;;;;;5073555;28;20025;-68
2020/12/20 06:48:03;;;;;;;92.82;53.22;;;180.10;1971.20;;;;;;5073458;28;20021;-68
2020/12/20 06:50:42;;;;;;;100.82;55.00;;;180.10;1971.20;;;;;;5073513;28;20059;-68
2020/12/20 06:53:09;;;;;;;96.22;53.92;;;180.10;1971.20;;;;;;5073393;28;20490;-68
2020/12/20 06:55:35;;;;;;;99.95;54.45;;;180.10;1971.20;;;;;;5073159;28;20020;-68
2020/12/20 06:58:04;;;;;;;98.93;51.67;;;180.10;1971.20;;;;;;5073502;28;20028;-68
2020/12/20 07:00:53;;;;;;;97.60;52.20;;;204.80;1971.20;;;;;;5073344;28;20050;-68
2020/12/20 07:03:24;;;;;;;102.10;51.92;;;204.80;1971.20;;;;;;5072822;28;20386;-68
2020/12/20 07:05:54;;;;;;;101.15;53.10;;;204.80;1971.20;;;;;;5073317;28;20467;-68
2020/12/20 07:08:22;;;;;;;100.20;51.13;;;204.80;1971.20;;;;;;5073296;28;20115;-68
2020/12/20 07:10:55;;;;;;;111.13;55.63;;;204.80;1971.20;;;;;;5073128;28;20074;-68
2020/12/20 07:13:37;;;;;;;96.43;51.80;;;204.80;1971.20;;;;;;5073373;28;20025;-68
2020/12/20 07:16:07;;;;;;;89.20;48.92;;;204.90;1971.20;;;;;;5073444;28;20032;-68
2020/12/20 07:18:45;;;;;;;92.80;50.35;;;204.90;1971.20;;;;;;5076611;28;20044;-68
2020/12/20 07:21:31;;;;;;;89.13;47.92;;;204.90;1971.20;;;;;;5075659;28;20024;-68
2020/12/20 07:24:04;;;;;;;91.70;46.90;;;204.90;1971.20;;;;;;5075701;28;20540;-68
2020/12/20 07:26:31;;;;;;;92.40;50.25;;;204.90;1971.20;;;;;;5076762;28;20411;-68
2020/12/20 07:29:00;;;;;;;97.18;51.25;;;204.90;1971.20;;;;;;5076997;28;20021;-68
2020/12/20 07:31:26;;;;;;;95.18;50.58;;;205.00;1945.60;;;;;;5076906;28;20378;-68
2020/12/20 07:33:53;;;;;;;104.00;54.80;;;205.00;1971.20;;;;;;5076842;28;20031;-68
2020/12/20 07:36:23;;;;;;;96.13;52.22;;;205.10;1945.60;;;;;;5076716;28;20052;-69
2020/12/20 07:38:50;;;;;;;102.40;53.15;;;205.10;2022.40;;;;;;5076384;28;20039;-68
2020/12/20 07:41:17;;;;;;;91.80;51.22;;;205.20;1971.20;;;;;;5076481;28;20366;-68
2020/12/20 07:43:44;;;;;;;98.75;53.70;;;205.20;1971.20;;;;;;5076229;28;20461;-71
2020/12/20 07:46:12;;;;;;;123.40;61.25;;;205.20;1971.20;;;;;;5076482;28;20170;-68
2020/12/20 07:48:38;;;;;;;127.30;60.63;;;205.20;1945.60;;;;;;5075217;28;20056;-68
2020/12/20 07:51:24;;;;;;;117.90;57.28;;;205.20;1945.60;;;;;;5076580;28;20025;-68
2020/12/20 07:53:59;;;;;;;124.88;59.08;;;205.30;1971.20;;;;;;5076245;28;20032;-68
2020/12/20 07:56:30;;;;;;;130.18;60.83;;;205.30;1945.60;;;;;;5076199;28;20032;-68
2020/12/20 07:59:02;;;;;;;120.00;58.88;;;205.30;1945.60;;;;;;5075899;28;20040;-68
2020/12/20 08:01:28;;;;;;;117.60;56.85;;;205.30;1945.60;;;;;;5076433;28;20111;-68
2020/12/20 08:04:03;;;;;;;108.35;51.70;;;205.30;1945.60;;;;;;5076159;28;20112;-68
2020/12/20 08:06:29;;;;;;;97.15;49.00;;;205.30;1945.60;;;;;;5075629;28;20031;-68
2020/12/20 08:09:11;;;;;;;94.13;47.58;;;205.30;1945.60;;;;;;5076013;28;20021;-68
2020/12/20 08:11:38;;;;;;;86.97;44.03;;;205.30;1945.60;;;;;;5072505;28;20035;-67
2020/12/20 08:14:07;;;;;;;87.53;41.60;;;205.40;1945.60;;;;;;5076218;28;20029;-69
2020/12/20 08:16:37;;;;;;;90.57;42.20;;;205.40;1945.60;;;;;;5075809;28;20040;-69
2020/12/20 08:19:18;;;;;;;91.45;46.83;;;205.40;1920.00;;;;;;5076038;28;20461;-68
2020/12/20 08:22:05;;;;;;;94.35;46.20;;;205.40;1920.00;;;;;;5075939;28;20104;-68
2020/12/20 08:24:33;;;;;;;89.25;46.35;;;205.50;1920.00;;;;;;5076031;28;20466;-69
2020/12/20 08:27:15;;;;;;;82.05;42.72;;;205.60;1920.00;;;;;;5075298;28;20024;-68
2020/12/20 08:29:41;;;;;;;86.55;45.17;;;205.70;1920.00;;;;;;5075692;28;20036;-68
2020/12/20 08:32:12;;;;;;;103.18;51.67;;;205.70;1920.00;;;;;;5075637;28;20060;-68
2020/12/20 08:34:38;;;;;;;93.13;50.22;;;230.40;1894.40;;;;;;5075631;28;20035;-68
2020/12/20 08:37:09;;;;;;;84.40;47.53;;;230.40;1894.40;;;;;;5075512;28;20024;-68
2020/12/20 08:39:35;;;;;;;83.13;47.42;;;230.40;1894.40;;;;;;5075445;28;20436;-68
2020/12/20 08:42:06;;;;;;;83.43;46.00;;;230.50;1894.40;;;;;;5075564;28;20025;-68
2020/12/20 08:44:32;;;;;;;92.47;47.78;;;230.50;1868.80;;;;;;5075536;28;20020;-68
2020/12/20 08:47:17;;;;;;;84.15;44.25;;;230.60;1894.40;;;;;;5074901;28;20021;-69
2020/12/20 08:49:59;;;;;;;84.28;42.88;;;230.50;1868.80;;;;;;5075488;28;20021;-68
2020/12/20 08:52:29;;;;;;;86.03;44.78;;;230.60;1868.80;;;;;;5075385;28;20411;-68
2020/12/20 08:54:56;;;;;;;90.38;46.08;;;230.60;1843.20;;;;;;5074816;28;20107;-65
2020/12/20 08:57:28;;;;;;;82.05;44.65;;;230.60;1843.20;;;;;;5074841;28;20108;-66
2020/12/20 08:59:54;;;;;;;86.47;45.72;;;230.70;1843.20;;;;;;5074681;28;20033;-66
2020/12/20 09:02:24;;;;;;;86.85;46.03;;;230.70;1843.20;;;;;;5074753;28;20100;-67
2020/12/20 09:05:10;;;;;;;95.22;48.03;;;230.70;1843.20;;;;;;5074690;28;20020;-67
2020/12/20 09:07:44;;;;;;;;;;;230.70;1843.20;;;;;;5075220;28;20116;-67
2020/12/20 09:10:19;;;;;;;99.83;51.63;;;230.80;1817.60;;;;;;5074612;28;19927;-67
2020/12/20 09:12:59;;;;;;;99.05;51.03;;;230.70;1817.60;;;;;;5074462;28;20024;-67
2020/12/20 09:15:33;;;;;;;87.50;44.78;;;230.70;1817.60;;;;;;5074279;28;20028;-67
2020/12/20 09:18:00;;;;;;;98.72;48.55;;;230.70;1817.60;;;;;;5074194;28;20076;-66
2020/12/20 09:20:28;;;;;;;99.97;47.55;;;230.70;1817.60;;;;;;5074298;28;20029;-66
2020/12/20 09:23:00;;;;;;;110.60;56.03;;;230.70;1817.60;;;;;;5074037;28;20047;-66
2020/12/20 09:25:31;;;;;;;133.52;70.50;;;230.70;1817.60;;;;;;5074346;28;20033;-67
2020/12/20 09:27:59;;;;;;;133.63;73.47;;;230.80;1792.00;;;;;;5074095;28;20056;-67
2020/12/20 09:30:33;;;;;;;117.97;63.00;;;230.80;1817.60;;;;;;5074234;28;20027;-67
2020/12/20 09:32:59;;;;;;;93.10;51.83;;;230.80;1817.60;;;;;;5074045;28;20017;-68
2020/12/20 09:35:26;;;;;;;82.15;45.50;;;230.80;1817.60;;;;;;5074080;28;20021;-66
2020/12/20 09:37:53;;;;;;;75.32;42.63;;;230.80;1792.00;;;;;;5073894;28;20020;-67
2020/12/20 09:40:19;;;;;;;86.82;46.92;;;230.80;1817.60;;;;;;5073315;28;20054;-67
2020/12/20 09:42:46;;;;;;;95.85;50.85;;;230.80;1817.60;;;;;;5073845;28;20470;-67
2020/12/20 09:45:12;;;;;;;93.13;45.92;;;230.80;1817.60;;;;;;5074237;28;20025;-67
2020/12/20 09:47:40;;;;;;;77.75;38.95;;;230.80;1817.60;;;;;;5071129;28;20514;-67
2020/12/20 09:50:07;;;;;;;84.25;43.03;;;230.90;1792.00;;;;;;5073405;28;20029;-67
2020/12/20 09:52:34;;;;;;;83.75;42.38;;;230.80;1792.00;;;;;;5073129;28;20028;-67
2020/12/20 09:55:00;;;;;;;81.93;39.53;;;230.90;1817.60;;;;;;5072651;28;20469;-67
2020/12/20 09:57:27;;;;;;;62.08;33.55;;;230.90;1792.00;;;;;;5071867;28;20085;-67
2020/12/20 09:59:53;;;;;;;58.13;31.60;;;230.90;1792.00;;;;;;5068504;28;20041;-67
2020/12/20 10:02:18;;;;;;;66.63;35.80;;;230.90;1792.00;;;;;;5057447;28;20489;-67
2020/12/20 10:04:44;;;;;;;61.20;35.15;;;230.90;1792.00;;;;;;5053616;28;20028;-67
2020/12/20 10:07:10;;;;;;;53.25;32.17;;;230.90;1792.00;;;;;;5050256;28;20031;-67
2020/12/20 10:09:35;;;;;;;71.32;40.25;;;231.00;1792.00;;;;;;5051670;28;20032;-67
2020/12/20 10:12:01;;;;;;;85.40;46.65;;;231.00;1766.40;;;;;;5052758;28;20025;-67
2020/12/20 10:14:27;;;;;;;91.68;49.17;;;231.00;1766.40;;;;;;5053078;28;20452;-67
2020/12/20 10:16:54;;;;;;;71.35;38.65;;;231.00;1766.40;;;;;;5053088;28;20049;-67
2020/12/20 10:19:20;;;;;;;59.50;34.00;;;231.00;1766.40;;;;;;5051863;28;20041;-67
2020/12/20 10:21:52;;;;;;;66.35;35.58;;;231.00;1766.40;;;;;;5052818;28;20853;-67
2020/12/20 10:24:19;;;;;;;67.13;35.25;;;231.10;1740.80;;;;;;5053263;28;20033;-67
2020/12/20 10:26:46;;;;;;;65.20;35.10;;;231.10;1740.80;;;;;;5053081;28;20021;-66
2020/12/20 10:29:14;;;;;;;60.92;33.38;;;231.10;1740.80;;;;;;5052901;28;20059;-67
2020/12/20 10:31:44;;;;;;;54.38;30.02;;;231.00;1740.80;;;;;;5053764;28;20029;-67
2020/12/20 10:34:11;;;;;;;55.78;32.08;;;231.00;1740.80;;;;;;5054238;28;20017;-68
2020/12/20 10:36:38;;;;;;;59.83;33.20;;;231.00;1715.20;;;;;;5052573;28;20053;-67
2020/12/20 10:39:06;;;;;;;55.80;31.98;;;231.00;1715.20;;;;;;5052832;28;20037;-68
2020/12/20 10:41:36;;;;;;;47.30;28.27;;;231.00;1715.20;;;;;;5060105;28;20025;-67
2020/12/20 10:44:03;;;;;;;54.28;32.53;;;231.00;1715.20;;;;;;5071339;28;20917;-68
2020/12/20 10:46:29;;;;;;;57.50;35.00;;;231.00;1715.20;;;;;;5058029;28;20025;-66
2020/12/20 10:48:55;;;;;;;57.05;32.85;;;231.00;1740.80;;;;;;5073138;28;20082;-66
2020/12/20 10:51:20;;;;;;;63.40;34.03;;;231.00;1715.20;;;;;;5073664;28;20037;-66
2020/12/20 10:53:47;;;;;;;47.28;29.90;;;231.00;1715.20;;;;;;5077123;28;20046;-67
2020/12/20 10:56:16;;;;;;;50.25;28.13;;;231.00;1715.20;;;;;;5076842;28;20106;-67
2020/12/20 10:58:42;;;;;;;49.28;30.13;;;231.00;1689.60;;;;;;5076519;28;20036;-67
2020/12/20 11:01:09;;;;;;;50.42;29.55;;;230.90;1715.20;;;;;;5076997;28;20517;-67
2020/12/20 11:03:35;;;;;;;46.38;29.38;;;231.00;1689.60;;;;;;5076511;28;20029;-67
2020/12/20 11:06:01;;;;;;;48.30;27.50;;;230.90;1689.60;;;;;;5076405;28;20032;-67
2020/12/20 11:08:27;;;;;;;46.70;27.25;;;231.00;1715.20;;;;;;5076426;28;20020;-67
2020/12/20 11:10:53;;;;;;;45.75;26.10;;;231.00;1689.60;;;;;;5075727;28;20389;-67
2020/12/20 11:13:19;;;;;;;52.10;31.55;;;231.00;1664.00;;;;;;5074877;28;20025;-67
2020/12/20 11:15:47;;;;;;;47.70;29.60;;;231.00;1664.00;;;;;;5075012;28;20443;-67
2020/12/20 11:18:13;;;;;;;47.35;26.75;;;231.00;1664.00;;;;;;5073465;28;20051;-67
2020/12/20 11:20:39;;;;;;;48.65;26.73;;;231.00;1664.00;;;;;;5076027;28;20149;-67
2020/12/20 11:23:05;;;;;;;47.75;28.33;;;231.00;1664.00;;;;;;5075804;28;20465;-66
2020/12/20 11:25:32;;;;;;;56.83;30.20;;;231.00;1664.00;;;;;;5076036;28;20513;-67
2020/12/20 11:27:57;;;;;;;50.97;31.17;;;231.00;1664.00;;;;;;5075231;28;20032;-67
2020/12/20 11:30:23;;;;;;;54.15;32.10;;;230.90;1664.00;;;;;;5075838;28;20028;-67
2020/12/20 11:32:49;;;;;;;55.13;33.30;;;230.90;1664.00;;;;;;5075816;28;20420;-67
2020/12/20 11:35:16;;;;;;;64.65;37.55;;;230.90;1664.00;;;;;;5076534;28;20500;-67
2020/12/20 11:37:43;;;;;;;65.15;37.63;;;230.90;1664.00;;;;;;5075809;28;20024;-67
2020/12/20 11:40:09;;;;;;;71.75;41.20;;;230.90;1664.00;;;;;;5076199;28;20444;-67
2020/12/20 11:42:35;;;;;;;65.03;39.75;;;230.80;1689.60;;;;;;5076027;28;20033;-67
2020/12/20 11:45:00;;;;;;;75.72;40.13;;;230.90;1664.00;;;;;;5075591;28;20031;-67
2020/12/20 11:47:26;;;;;;;64.43;36.65;;;230.90;1664.00;;;;;;5076192;28;20043;-67
2020/12/20 11:49:52;;;;;;;64.80;34.42;;;230.90;1689.60;;;;;;5075742;28;20436;-67
2020/12/20 11:52:18;;;;;;;53.20;30.77;;;230.90;1664.00;;;;;;5075452;28;20032;-67
2020/12/20 11:54:43;;;;;;;67.40;37.60;;;230.90;1664.00;;;;;;5074668;28;20028;-67
2020/12/20 11:57:09;;;;;;;78.85;42.08;;;231.00;1638.40;;;;;;5075612;28;20462;-67
2020/12/20 11:59:35;;;;;;;68.70;39.60;;;231.00;1638.40;;;;;;5075226;28;20036;-67
2020/12/20 12:02:01;;;;;;;57.70;36.63;;;231.00;1638.40;;;;;;5075029;28;20078;-67
2020/12/20 12:04:27;;;;;;;58.03;35.13;;;231.00;1638.40;;;;;;5075681;28;20028;-67